This is the latest recevied weather packets stored in our database for station/object 9W2CHF-3. If no packets are shown the sender has not sent any weather packets the latest 10 day(s).
| Time | Temp. | Humidity | Pressure | Rain* | Wind** | Luminosity | Snow |
|---|---|---|---|---|---|---|---|
| 1778011288 | 28.33° C | 100% | 1008.8 hPa | - | - | - | - |
| 1778010090 | 28.33° C | 100% | 1008.9 hPa | - | - | - | - |
| 1778008887 | 29.44° C | 99% | 1009 hPa | - | - | - | - |
| 1778007686 | 28.33° C | 100% | 1009.2 hPa | - | - | - | - |
| 1778006486 | 29.44° C | 97% | 1009.3 hPa | - | - | - | - |
| 1778005286 | 29.44° C | 97% | 1009.5 hPa | - | - | - | - |
| 1778004086 | 28.33° C | 100% | 1009.7 hPa | - | - | - | - |
| 1778002886 | 28.89° C | 97% | 1009.9 hPa | - | - | - | - |
| 1778001686 | 28.89° C | 100% | 1010.1 hPa | - | - | - | - |
| 1778000496 | 29.44° C | 94% | 1010.3 hPa | - | - | - | - |
| 1777999295 | 28.89° C | 97% | 1010.5 hPa | - | - | - | - |
| 1777998095 | 30° C | 89% | 1010.6 hPa | - | - | - | - |
| 1777996899 | 31.11° C | 84% | 1010.5 hPa | - | - | - | - |
| 1777995694 | 31.11° C | 86% | 1010.4 hPa | - | - | - | - |
| 1777994494 | 31.11° C | 85% | 1010.3 hPa | - | - | - | - |
| 1777993294 | 32.22° C | 80% | 1010.1 hPa | - | - | - | - |
| 1777992094 | 30.56° C | 86% | 1010 hPa | - | - | - | - |
| 1777990894 | 30.56° C | 84% | 1009.9 hPa | - | - | - | - |
| 1777989757 | 35° C | 69% | 1009.6 hPa | - | - | - | - |
| 1777988494 | 31.11° C | 84% | 1009.6 hPa | - | - | - | - |
| 1777987294 | 31.11° C | 83% | 1009.4 hPa | - | - | - | - |
| 1777986093 | 31.11° C | 82% | 1009.3 hPa | - | - | - | - |
| 1777984895 | 31.67° C | 81% | 1009.3 hPa | - | - | - | - |
| 1777983693 | 32.22° C | 77% | 1009 hPa | - | - | - | - |
| 1777982493 | 35.56° C | 70% | 1008.5 hPa | - | - | - | - |
* Rain since midnight (hover to see other rain measurements)
** Current wind speed in m/s (hover to see current wind gust speed)